Time;durP1;ratioP1;P1;durP2;ratioP2;P2;SDS_P1;SDS_P2;PMS_P1;PMS_P2;Temp;Humidity;BMP_temperature;BMP_pressure;BME280_temperature;BME280_humidity;BME280_pressure;Samples;Min_cycle;Max_cycle;Signal;HPM_P1;HPM_P2
2023/10/04 00:01:16;;;;;;;12.57;5.97;;;;;;;14.11;100.00;99933.84;4190002;28;20232;-71
2023/10/04 00:03:43;;;;;;;15.87;6.23;;;;;;;14.14;100.00;99949.84;4196381;28;22193;-71
2023/10/04 00:06:10;;;;;;;12.83;5.33;;;;;;;14.24;100.00;99957.75;4195699;28;20636;-71
2023/10/04 00:08:37;;;;;;;12.73;5.43;;;;;;;14.23;100.00;99945.16;4192933;28;20603;-73
2023/10/04 00:11:04;;;;;;;14.07;6.00;;;;;;;14.17;100.00;99921.41;4196562;28;20239;-72
2023/10/04 00:13:33;;;;;;;16.27;6.50;;;;;;;14.20;100.00;99932.75;4207366;28;20410;-73
2023/10/04 00:16:02;;;;;;;16.53;6.03;;;;;;;14.18;100.00;99921.22;4192800;28;20228;-72
2023/10/04 00:18:29;;;;;;;18.53;6.17;;;;;;;14.26;100.00;99926.59;4185109;28;20268;-70
2023/10/04 00:20:56;;;;;;;11.77;4.97;;;;;;;14.26;100.00;99926.59;4207663;28;22114;-69
2023/10/04 00:23:22;;;;;;;13.00;5.17;;;;;;;14.31;100.00;99920.59;4197800;28;20241;-71
2023/10/04 00:25:49;;;;;;;13.03;6.07;;;;;;;14.32;100.00;99903.22;4195883;28;21080;-71
2023/10/04 00:28:17;;;;;;;14.27;5.93;;;;;;;14.34;100.00;99922.94;4199865;28;20336;-72
2023/10/04 00:30:44;;;;;;;12.77;5.67;;;;;;;14.25;100.00;99926.78;4198373;28;20266;-71
2023/10/04 00:33:11;;;;;;;15.37;5.73;;;;;;;14.29;100.00;99941.69;4190223;28;20241;-70
2023/10/04 00:35:40;;;;;;;13.43;5.63;;;;;;;14.30;100.00;99937.94;4189954;28;20788;-72
2023/10/04 00:38:09;;;;;;;16.80;5.80;;;;;;;14.42;100.00;99935.63;4192484;28;20389;-70
2023/10/04 00:40:38;;;;;;;17.40;5.90;;;;;;;14.36;100.00;99944.53;4193007;28;21156;-71
2023/10/04 00:43:07;;;;;;;14.27;4.90;;;;;;;14.41;100.00;99959.31;4184422;28;20240;-71
2023/10/04 00:45:34;;;;;;;15.57;5.37;;;;;;;14.40;99.68;99960.31;4204075;28;20810;-71
2023/10/04 00:48:10;;;;;;;12.73;4.80;;;;;;;14.52;98.83;99970.75;4185252;28;20236;-73
2023/10/04 00:50:38;;;;;;;14.10;4.90;;;;;;;14.45;98.80;99997.03;4191864;28;20234;-71
2023/10/04 00:53:08;;;;;;;7.37;3.50;;;;;;;14.45;98.34;100006.06;4197805;28;20483;-71
2023/10/04 00:55:40;;;;;;;7.10;3.30;;;;;;;14.27;98.68;100011.84;4202559;28;21835;-70
2023/10/04 00:58:09;;;;;;;12.63;3.30;;;;;;;14.20;99.24;100027.22;4188899;28;20233;-72
2023/10/04 01:00:39;;;;;;;7.97;3.50;;;;;;;14.07;100.00;100034.09;4206890;28;21843;-70
2023/10/04 01:03:09;;;;;;;6.07;2.90;;;;;;;14.10;99.73;100066.41;4199272;28;22144;-75
2023/10/04 01:05:40;;;;;;;7.70;2.70;;;;;;;13.99;100.00;100072.22;4196161;28;20242;-74
2023/10/04 01:08:09;;;;;;;8.73;2.67;;;;;;;14.01;98.88;100078.34;4189125;28;20308;-73
2023/10/04 01:10:37;;;;;;;8.80;2.60;;;;;;;13.86;99.41;100067.38;4205938;28;20407;-75
2023/10/04 01:13:09;;;;;;;9.13;2.50;;;;;;;13.81;99.82;100077.09;4205010;28;20369;-70
2023/10/04 01:15:39;;;;;;;5.50;2.50;;;;;;;13.72;100.00;100079.00;4188650;28;20245;-71
2023/10/04 01:18:10;;;;;;;4.90;2.50;;;;;;;13.77;100.00;100087.50;4210221;28;20355;-70
2023/10/04 01:20:39;;;;;;;5.93;2.70;;;;;;;13.67;100.00;100086.84;4192137;28;22943;-74
2023/10/04 01:23:10;;;;;;;7.90;2.93;;;;;;;13.61;100.00;100105.56;4188937;28;20691;-71
2023/10/04 01:25:39;;;;;;;8.60;2.87;;;;;;;13.61;100.00;100119.19;4198675;28;21110;-70
2023/10/04 01:28:12;;;;;;;11.37;4.53;;;;;;;13.59;100.00;100129.38;4191749;28;20233;-71
2023/10/04 01:30:43;;;;;;;8.33;3.03;;;;;;;13.54;100.00;100115.47;4186667;28;21251;-72
2023/10/04 01:33:15;;;;;;;8.30;3.60;;;;;;;13.68;100.00;100123.91;4193190;28;20308;-73
2023/10/04 01:35:45;;;;;;;8.50;3.27;;;;;;;13.76;100.00;100134.75;4200503;28;20339;-71
2023/10/04 01:38:15;;;;;;;6.67;2.97;;;;;;;13.62;100.00;100123.59;4196980;28;20315;-73
2023/10/04 01:40:47;;;;;;;8.47;3.07;;;;;;;13.68;100.00;100116.59;4197822;28;20240;-70
2023/10/04 01:43:17;;;;;;;7.40;2.37;;;;;;;13.62;98.54;100114.56;4189911;28;20228;-69
2023/10/04 01:45:47;;;;;;;5.13;2.30;;;;;;;13.61;97.18;100124.63;4202086;28;20229;-71
2023/10/04 01:48:20;;;;;;;6.07;2.20;;;;;;;13.52;96.77;100144.69;4201157;28;21633;-70
2023/10/04 01:50:48;;;;;;;5.27;2.23;;;;;;;13.54;96.46;100152.66;4203861;28;21651;-69
2023/10/04 01:53:15;;;;;;;3.50;1.73;;;;;;;13.57;96.75;100168.66;4197839;28;20323;-71
2023/10/04 01:55:42;;;;;;;3.77;1.80;;;;;;;13.53;96.40;100168.16;4192767;28;20255;-71
2023/10/04 01:58:08;;;;;;;6.13;2.33;;;;;;;13.41;97.35;100183.97;4190955;28;22913;-71
2023/10/04 02:00:35;;;;;;;5.90;2.00;;;;;;;13.38;98.10;100192.47;4203549;28;20327;-71
2023/10/04 02:03:02;;;;;;;8.63;2.03;;;;;;;13.38;98.98;100205.19;4202394;28;23003;-70
2023/10/04 02:05:32;;;;;;;8.67;2.53;;;;;;;13.40;100.00;100211.34;4192120;28;20484;-70
2023/10/04 02:07:59;;;;;;;5.37;2.40;;;;;;;13.38;100.00;100191.59;4203075;28;20252;-70
2023/10/04 02:10:26;;;;;;;5.63;2.20;;;;;;;13.37;99.74;100200.78;4197993;28;20228;-72
2023/10/04 02:12:55;;;;;;;4.97;1.87;;;;;;;13.41;97.10;100218.47;4191685;28;20248;-72
2023/10/04 02:15:22;;;;;;;5.67;1.80;;;;;;;13.33;97.04;100216.56;4193694;28;21766;-70
2023/10/04 02:17:53;;;;;;;5.23;1.83;;;;;;;13.38;97.02;100233.25;4202257;28;20225;-70
2023/10/04 02:20:23;;;;;;;4.40;1.67;;;;;;;13.23;97.08;100241.22;4196411;28;20281;-70
2023/10/04 02:22:51;;;;;;;5.53;1.97;;;;;;;13.16;96.45;100240.19;4194496;28;21747;-71
2023/10/04 02:25:19;;;;;;;5.80;1.90;;;;;;;13.17;96.72;100250.06;4202675;28;25876;-70
2023/10/04 02:27:49;;;;;;;5.40;1.80;;;;;;;13.08;96.87;100242.91;4199068;28;20905;-72
2023/10/04 02:30:21;;;;;;;8.23;1.80;;;;;;;13.03;97.25;100261.59;4205487;28;21636;-71
2023/10/04 02:32:50;;;;;;;6.47;1.70;;;;;;;12.98;98.05;100264.81;4204416;28;20326;-70
2023/10/04 02:35:34;;;;;;;3.77;1.60;;;;;;;12.93;98.44;100272.59;4199573;28;20303;-71
2023/10/04 02:38:09;;;;;;;5.57;1.83;;;;;;;12.84;98.96;100269.84;4200465;28;21809;-71
2023/10/04 02:40:37;;;;;;;3.63;1.40;;;;;;;12.84;98.49;100278.00;4192617;28;25541;-70
2023/10/04 02:43:07;;;;;;;9.37;1.60;;;;;;;12.87;97.94;100293.16;4189742;28;21619;-71
2023/10/04 02:45:36;;;;;;;10.17;1.70;;;;;;;12.74;97.80;100285.47;4197759;28;20360;-73
2023/10/04 02:48:04;;;;;;;6.13;1.43;;;;;;;12.84;96.59;100282.59;4200837;28;20228;-71
2023/10/04 02:50:32;;;;;;;3.97;1.53;;;;;;;12.76;96.41;100299.75;4194730;28;20300;-72
2023/10/04 02:52:59;;;;;;;5.30;1.80;;;;;;;12.67;97.09;100307.00;4183297;28;20288;-71
2023/10/04 02:55:27;;;;;;;3.40;1.33;;;;;;;12.71;96.43;100312.94;4196385;28;20243;-73
2023/10/04 02:57:55;;;;;;;4.30;1.40;;;;;;;12.70;95.54;100311.25;4196968;28;20331;-70
2023/10/04 03:00:23;;;;;;;2.97;1.30;;;;;;;12.67;95.27;100317.03;4199947;28;20247;-70
2023/10/04 03:02:52;;;;;;;6.40;1.27;;;;;;;12.62;95.06;100312.09;4197150;28;21101;-71
2023/10/04 03:05:20;;;;;;;5.70;1.40;;;;;;;12.60;95.33;100318.69;4203082;28;20233;-71
2023/10/04 03:07:50;;;;;;;5.43;1.47;;;;;;;12.59;94.46;100325.97;4181256;28;20292;-71
2023/10/04 03:10:24;;;;;;;6.37;1.93;;;;;;;12.63;94.12;100340.94;4190768;28;22600;-70
2023/10/04 03:12:59;;;;;;;6.40;1.83;;;;;;;12.57;93.95;100332.59;4196586;28;21741;-71
2023/10/04 03:15:27;;;;;;;5.23;1.73;;;;;;;12.52;93.68;100336.66;4202934;28;20939;-72
2023/10/04 03:17:57;;;;;;;4.30;1.40;;;;;;;12.41;94.14;100339.63;4204292;28;20807;-72
2023/10/04 03:20:28;;;;;;;6.13;2.20;;;;;;;12.45;93.57;100353.75;4192906;28;20240;-70
2023/10/04 03:22:56;;;;;;;8.10;1.83;;;;;;;12.46;93.81;100355.44;4204202;28;20251;-72
2023/10/04 03:25:26;;;;;;;6.57;1.77;;;;;;;12.35;94.00;100360.13;4199240;28;20225;-72
2023/10/04 03:27:54;;;;;;;5.83;1.67;;;;;;;12.36;94.05;100356.41;4200372;28;22955;-71
2023/10/04 03:30:21;;;;;;;9.07;2.13;;;;;;;12.46;92.76;100366.31;4198366;28;22055;-70
2023/10/04 03:32:56;;;;;;;5.67;1.50;;;;;;;12.39;92.71;100366.09;4202952;28;21126;-71
2023/10/04 03:35:26;;;;;;;5.13;1.73;;;;;;;12.28;93.58;100367.22;4200593;28;20236;-71
2023/10/04 03:38:05;;;;;;;8.17;1.80;;;;;;;12.29;93.78;100362.66;4202714;28;21143;-70
2023/10/04 03:40:35;;;;;;;5.80;1.57;;;;;;;12.25;93.45;100362.13;4196713;28;20279;-69
2023/10/04 03:43:06;;;;;;;5.13;1.63;;;;;;;12.32;92.62;100370.47;4194038;28;21912;-71
2023/10/04 03:45:35;;;;;;;9.83;1.70;;;;;;;12.38;92.49;100371.69;4217369;28;20233;-71
2023/10/04 03:48:05;;;;;;;5.43;1.33;;;;;;;12.36;92.60;100380.84;4202030;28;20360;-70
2023/10/04 03:50:32;;;;;;;4.80;1.70;;;;;;;12.39;92.95;100393.25;4184156;28;20313;-72
2023/10/04 03:52:58;;;;;;;8.80;1.63;;;;;;;12.33;92.78;100393.88;4198089;28;20249;-70
2023/10/04 03:55:28;;;;;;;11.13;1.80;;;;;;;12.35;92.99;100408.16;4199610;28;20233;-72
2023/10/04 03:57:55;;;;;;;13.10;2.07;;;;;;;12.33;92.85;100402.91;4194649;28;21093;-70
2023/10/04 04:00:23;;;;;;;6.77;1.70;;;;;;;12.37;92.15;100417.00;4193701;28;22100;-70
2023/10/04 04:02:51;;;;;;;5.77;1.83;;;;;;;12.34;92.84;100415.47;4207181;28;20240;-69
2023/10/04 04:05:23;;;;;;;5.83;1.60;;;;;;;12.45;91.53;100408.03;4199210;28;23540;-69
2023/10/04 04:07:53;;;;;;;7.67;2.40;;;;;;;12.45;91.04;100421.63;4194548;28;20395;-71
2023/10/04 04:10:21;;;;;;;8.90;1.90;;;;;;;12.41;91.31;100414.81;4196277;28;20279;-72
2023/10/04 04:12:49;;;;;;;11.40;1.90;;;;;;;12.31;92.06;100432.06;4196747;28;20971;-70
2023/10/04 04:15:17;;;;;;;8.07;1.70;;;;;;;12.23;92.46;100423.00;4195431;28;22870;-70
2023/10/04 04:17:45;;;;;;;7.37;2.03;;;;;;;12.15;93.39;100432.78;4186970;28;20432;-70
2023/10/04 04:20:18;;;;;;;13.33;2.20;;;;;;;12.11;93.10;100434.09;4188255;28;20428;-71
2023/10/04 04:22:50;;;;;;;9.80;1.90;;;;;;;12.16;93.26;100448.03;4182031;28;20243;-71
2023/10/04 04:25:19;;;;;;;8.63;1.63;;;;;;;12.15;93.46;100442.78;4198384;28;22873;-72
2023/10/04 04:27:49;;;;;;;8.63;1.80;;;;;;;12.22;93.15;100452.00;4200236;28;21316;-71
2023/10/04 04:30:19;;;;;;;8.87;2.13;;;;;;;12.18;92.83;100447.91;4188904;28;20244;-72
2023/10/04 04:32:56;;;;;;;9.43;1.80;;;;;;;12.17;93.01;100449.75;4201645;28;21093;-73
2023/10/04 04:37:55;;;;;;;12.07;2.10;;;;;;;12.31;92.34;100461.06;4192744;28;20725;-72
2023/10/04 04:40:30;;;;;;;10.87;2.20;;;;;;;12.24;92.28;100451.84;4194183;28;21250;-73
2023/10/04 04:43:14;;;;;;;13.83;2.30;;;;;;;12.28;92.40;100454.06;4200500;28;20236;-72
2023/10/04 04:45:41;;;;;;;6.60;2.13;;;;;;;12.20;92.26;100451.28;4200621;28;20248;-70
2023/10/04 04:48:08;;;;;;;10.23;2.10;;;;;;;12.18;92.14;100451.47;4197590;28;20243;-71
2023/10/04 04:50:35;;;;;;;12.60;2.07;;;;;;;12.14;92.06;100452.78;4189309;28;21856;-70
2023/10/04 04:53:08;;;;;;;11.43;2.27;;;;;;;12.20;91.86;100459.44;4198723;28;20229;-68
2023/10/04 04:55:35;;;;;;;9.37;2.20;;;;;;;12.23;91.36;100472.69;4207257;28;20542;-72
2023/10/04 04:58:05;;;;;;;8.70;2.30;;;;;;;12.23;91.27;100470.00;4195428;28;20312;-74
2023/10/04 05:00:33;;;;;;;9.53;1.93;;;;;;;12.28;91.33;100477.66;4196513;28;20237;-72
2023/10/04 05:03:01;;;;;;;10.30;2.73;;;;;;;12.25;91.40;100480.69;4198634;28;20428;-70
2023/10/04 05:05:29;;;;;;;8.50;2.17;;;;;;;12.27;91.12;100492.25;4195511;28;20225;-72
2023/10/04 05:07:55;;;;;;;12.77;2.27;;;;;;;12.32;90.48;100482.63;4197738;28;20232;-71
2023/10/04 05:10:25;;;;;;;8.43;2.20;;;;;;;12.34;90.47;100496.91;4208285;28;20300;-73
2023/10/04 05:12:52;;;;;;;11.47;2.33;;;;;;;12.31;90.88;100497.19;4226966;28;20250;-73
2023/10/04 05:15:24;;;;;;;7.67;2.20;;;;;;;12.37;90.21;100498.44;4230431;28;20495;-71
2023/10/04 05:17:51;;;;;;;9.70;2.33;;;;;;;12.43;89.53;100492.38;4238910;28;23583;-73
2023/10/04 05:20:19;;;;;;;10.87;1.90;;;;;;;12.46;89.36;100502.91;4221839;28;20411;-72
2023/10/04 05:22:49;;;;;;;10.17;2.27;;;;;;;12.45;89.21;100497.63;4225473;28;20259;-71
2023/10/04 05:25:16;;;;;;;12.30;2.40;;;;;;;12.47;89.42;100495.63;4206795;28;22160;-73
2023/10/04 05:27:45;;;;;;;10.37;2.30;;;;;;;12.47;89.51;100507.31;4205722;28;20367;-71
2023/10/04 05:30:16;;;;;;;10.50;2.17;;;;;;;12.55;89.08;100500.25;4205958;28;20455;-72
2023/10/04 05:32:44;;;;;;;11.13;2.07;;;;;;;12.54;89.14;100512.97;4204530;28;20243;-71
2023/10/04 05:35:14;;;;;;;10.50;1.93;;;;;;;12.51;89.69;100516.00;4191250;28;20467;-72
2023/10/04 05:37:41;;;;;;;6.20;1.97;;;;;;;12.57;89.10;100520.81;4195319;28;21919;-72
2023/10/04 05:40:16;;;;;;;11.20;2.23;;;;;;;12.63;89.13;100533.75;4210377;28;20241;-70
2023/10/04 05:42:44;;;;;;;8.90;2.60;;;;;;;12.51;89.42;100541.31;4201801;28;20244;-73
2023/10/04 05:45:12;;;;;;;14.83;2.83;;;;;;;12.56;89.80;100537.25;4185039;28;20600;-71
2023/10/04 05:47:39;;;;;;;9.33;2.63;;;;;;;12.60;89.62;100544.09;4211088;28;20244;-73
2023/10/04 05:50:17;;;;;;;13.00;2.30;;;;;;;12.52;89.90;100551.16;4196855;28;20406;-71
2023/10/04 05:52:44;;;;;;;10.37;2.27;;;;;;;12.65;89.65;100561.59;4191153;28;20260;-73
2023/10/04 05:55:11;;;;;;;10.80;2.53;;;;;;;12.70;89.22;100572.00;4199347;28;20971;-70
2023/10/04 05:57:37;;;;;;;10.60;2.17;;;;;;;12.68;89.09;100566.72;4198873;28;21959;-72
2023/10/04 06:00:23;;;;;;;8.83;2.67;;;;;;;12.56;90.14;100564.41;4202748;28;22509;-72
2023/10/04 06:02:58;;;;;;;14.67;2.43;;;;;;;12.63;90.91;100566.34;4202649;28;20236;-67
2023/10/04 06:05:29;;;;;;;10.90;2.40;;;;;;;12.75;89.85;100560.66;4198136;28;20235;-66
2023/10/04 06:07:56;;;;;;;9.83;2.53;;;;;;;12.81;89.44;100569.03;4184968;28;20380;-67
2023/10/04 06:10:24;;;;;;;12.83;2.33;;;;;;;12.89;88.89;100570.09;4195773;28;20316;-66
2023/10/04 06:12:55;;;;;;;11.27;2.30;;;;;;;12.84;89.14;100585.00;4205269;28;20341;-65
2023/10/04 06:15:24;;;;;;;11.10;3.03;;;;;;;12.77;89.83;100578.50;4194247;28;20291;-68
2023/10/04 06:17:52;;;;;;;12.23;2.60;;;;;;;12.82;89.04;100584.31;4198922;28;23671;-70
2023/10/04 06:20:33;;;;;;;10.93;2.37;;;;;;;12.76;89.24;100600.41;4210197;28;21114;-72
2023/10/04 06:23:05;;;;;;;13.20;2.90;;;;;;;12.74;89.65;100595.13;4194745;28;20499;-69
2023/10/04 06:25:34;;;;;;;6.80;2.00;;;;;;;12.79;89.66;100605.53;4188504;28;20237;-73
2023/10/04 06:28:05;;;;;;;11.07;2.17;;;;;;;12.80;89.56;100601.81;4190305;28;20240;-72
2023/10/04 06:30:34;;;;;;;10.77;1.90;;;;;;;12.93;87.74;100604.06;4197321;28;20368;-70
2023/10/04 06:33:03;;;;;;;11.13;2.43;;;;;;;12.92;85.99;100600.53;4197845;28;20300;-71
2023/10/04 06:35:32;;;;;;;9.97;2.23;;;;;;;12.89;85.86;100605.41;4198062;28;20658;-71
2023/10/04 06:38:00;;;;;;;6.73;1.53;;;;;;;12.90;85.33;100607.13;4206229;28;20704;-72
2023/10/04 06:40:31;;;;;;;7.47;1.90;;;;;;;13.00;84.19;100621.44;4199435;28;20498;-71
2023/10/04 06:43:06;;;;;;;8.93;1.60;;;;;;;12.97;83.03;100624.50;4198803;28;20233;-70
2023/10/04 06:45:35;;;;;;;7.00;1.53;;;;;;;12.88;83.56;100620.00;4204688;28;20228;-74
2023/10/04 06:48:06;;;;;;;8.80;1.97;;;;;;;12.90;83.63;100623.44;4204126;28;20229;-72
2023/10/04 06:50:43;;;;;;;9.23;1.93;;;;;;;12.89;83.55;100633.44;4186611;28;21894;-73
2023/10/04 06:53:10;;;;;;;7.77;1.60;;;;;;;12.99;82.94;100626.03;4199472;28;20244;-70
2023/10/04 06:55:38;;;;;;;8.27;2.07;;;;;;;13.02;82.38;100634.91;4215328;28;20229;-72
2023/10/04 06:58:07;;;;;;;11.13;2.00;;;;;;;13.04;82.68;100641.00;4195686;28;21016;-72
2023/10/04 07:00:37;;;;;;;7.70;1.63;;;;;;;13.03;81.42;100636.63;4220421;28;20376;-72
2023/10/04 07:03:05;;;;;;;13.83;1.97;;;;;;;13.19;81.09;100636.69;4198531;28;20241;-74
2023/10/04 07:05:35;;;;;;;10.40;1.80;;;;;;;13.27;81.44;100650.34;4195164;28;21387;-72
2023/10/04 07:08:05;;;;;;;12.73;2.20;;;;;;;13.28;81.84;100646.63;4193870;28;20233;-76
2023/10/04 07:10:32;;;;;;;11.90;2.43;;;;;;;13.16;82.28;100654.19;4197665;28;20410;-73
2023/10/04 07:13:00;;;;;;;10.73;1.90;;;;;;;13.19;81.91;100653.00;4206686;28;20244;-71
2023/10/04 07:15:30;;;;;;;9.40;2.43;;;;;;;13.27;81.65;100654.94;4200465;28;20251;-69
2023/10/04 07:17:57;;;;;;;13.70;2.30;;;;;;;13.30;81.74;100666.34;4200166;28;26767;-71
2023/10/04 07:20:26;;;;;;;11.13;2.00;;;;;;;13.24;81.19;100672.44;4195696;28;20231;-71
2023/10/04 07:22:58;;;;;;;16.67;2.27;;;;;;;13.25;81.24;100671.44;4188871;28;21185;-71
2023/10/04 07:25:30;;;;;;;6.90;1.80;;;;;;;13.40;81.28;100673.59;4223092;28;20367;-73
2023/10/04 07:28:01;;;;;;;13.47;2.43;;;;;;;13.35;81.66;100663.16;4236426;28;20241;-74
2023/10/04 07:30:36;;;;;;;11.20;2.23;;;;;;;13.49;81.22;100664.44;4222267;28;20237;-72
2023/10/04 07:33:04;;;;;;;7.20;1.90;;;;;;;13.43;80.07;100671.41;4196499;28;22714;-72
2023/10/04 07:35:32;;;;;;;5.93;2.10;;;;;;;13.65;79.68;100666.44;4216455;28;20620;-69
2023/10/04 07:37:59;;;;;;;11.17;2.00;;;;;;;15.21;72.97;100667.78;4243678;28;20368;-73
2023/10/04 07:40:34;;;;;;;7.83;2.10;;;;;;;16.03;68.73;100664.00;4280846;28;20248;-69
2023/10/04 07:43:01;;;;;;;10.77;2.20;;;;;;;16.42;67.28;100679.50;4223514;28;20247;-71
2023/10/04 07:45:30;;;;;;;13.53;2.60;;;;;;;16.14;66.46;100663.59;4228550;28;20303;-70
2023/10/04 07:47:59;;;;;;;10.53;1.80;;;;;;;17.30;63.20;100667.38;4221986;28;22423;-71
2023/10/04 07:50:28;;;;;;;6.60;2.00;;;;;;;16.72;64.24;100663.25;4223690;28;22621;-70
2023/10/04 07:52:59;;;;;;;6.77;1.80;;;;;;;17.24;62.37;100661.63;4211327;28;20993;-71
2023/10/04 07:55:27;;;;;;;4.70;1.93;;;;;;;18.15;59.33;100665.25;4202023;28;21397;-71
2023/10/04 07:57:58;;;;;;;9.07;2.13;;;;;;;18.54;59.75;100675.00;4228286;28;21681;-72
2023/10/04 08:00:25;;;;;;;4.13;1.77;;;;;;;18.32;58.63;100671.34;4207555;28;21005;-73
2023/10/04 08:02:52;;;;;;;3.87;1.60;;;;;;;18.46;57.68;100672.38;4223466;28;21141;-71
2023/10/04 08:05:25;;;;;;;10.30;2.00;;;;;;;18.63;57.27;100686.66;4220035;28;21115;-72
2023/10/04 08:07:56;;;;;;;11.57;2.00;;;;;;;18.44;57.59;100675.28;4234678;28;20611;-72
2023/10/04 08:10:25;;;;;;;8.43;2.03;;;;;;;16.48;64.31;100683.38;4202248;28;20746;-72
2023/10/04 08:12:55;;;;;;;14.37;2.03;;;;;;;15.82;66.60;100689.97;4207629;28;20229;-69
2023/10/04 08:15:25;;;;;;;8.77;2.20;;;;;;;14.78;70.37;100692.47;4204313;28;20343;-71
2023/10/04 08:17:58;;;;;;;8.57;2.30;;;;;;;14.46;72.47;100701.44;4198589;28;25083;-69
2023/10/04 08:20:29;;;;;;;7.33;2.40;;;;;;;14.47;72.50;100701.25;4205703;28;25077;-72
2023/10/04 08:22:57;;;;;;;8.47;2.30;;;;;;;14.23;72.86;100715.66;4206750;28;21761;-73
2023/10/04 08:25:29;;;;;;;7.53;2.23;;;;;;;14.20;73.16;100714.13;4199262;28;21380;-72
2023/10/04 08:27:57;;;;;;;9.20;2.37;;;;;;;14.11;74.22;100720.53;4185002;28;21735;-72
2023/10/04 08:30:25;;;;;;;13.40;2.37;;;;;;;14.00;73.77;100718.97;4202919;28;20344;-73
2023/10/04 08:32:53;;;;;;;8.60;2.20;;;;;;;13.97;74.35;100715.72;4198360;28;22509;-71
2023/10/04 08:35:28;;;;;;;10.97;2.20;;;;;;;13.81;75.17;100728.22;4199947;28;20255;-74
2023/10/04 08:37:58;;;;;;;10.70;2.27;;;;;;;13.59;76.01;100726.91;4203397;28;20321;-70
2023/10/04 08:40:29;;;;;;;12.47;2.33;;;;;;;13.49;76.61;100720.72;4187906;28;20324;-74
2023/10/04 08:42:58;;;;;;;7.20;2.07;;;;;;;13.44;77.27;100726.63;4197769;28;21753;-71
2023/10/04 08:45:29;;;;;;;10.53;2.20;;;;;;;13.48;78.00;100741.63;4191611;28;20237;-72
2023/10/04 08:47:57;;;;;;;11.00;2.43;;;;;;;13.54;77.79;100745.56;4201945;28;21197;-69
2023/10/04 08:50:34;;;;;;;10.00;2.20;;;;;;;13.40;77.47;100747.84;4188816;28;20237;-71
2023/10/04 08:53:10;;;;;;;13.43;2.97;;;;;;;13.42;78.16;100751.28;4196397;28;20402;-71
2023/10/04 08:55:41;;;;;;;10.68;2.50;;;;;;;13.33;78.23;100754.91;4201033;28;20431;-73
2023/10/04 08:58:09;;;;;;;13.83;2.70;;;;;;;13.27;78.75;100750.94;4186252;28;20238;-71
2023/10/04 09:00:39;;;;;;;16.33;2.97;;;;;;;13.25;79.29;100747.56;4192140;28;20308;-71
2023/10/04 09:03:07;;;;;;;13.40;2.43;;;;;;;13.30;79.77;100755.22;4207537;28;20324;-71
2023/10/04 09:05:36;;;;;;;13.32;2.80;;;;;;;13.16;79.82;100754.75;4191489;28;20413;-73
2023/10/04 09:08:04;;;;;;;9.20;2.53;;;;;;;13.31;79.20;100763.22;4192795;28;21925;-72
2023/10/04 09:10:34;;;;;;;7.67;2.50;;;;;;;13.15;80.02;100757.66;4204185;28;20582;-72
2023/10/04 09:13:03;;;;;;;9.63;2.10;;;;;;;13.23;79.92;100757.72;4203847;28;24841;-72
2023/10/04 09:15:31;;;;;;;7.37;2.80;;;;;;;13.19;80.28;100758.19;4191962;28;20326;-71
2023/10/04 09:17:58;;;;;;;10.97;2.87;;;;;;;13.28;80.22;100771.69;4187876;28;20242;-77
2023/10/04 09:20:30;;;;;;;10.90;2.43;;;;;;;13.29;80.00;100762.53;4192044;28;20248;-75
2023/10/04 09:22:59;;;;;;;8.10;2.37;;;;;;;13.08;80.24;100762.00;4208497;28;20241;-73
2023/10/04 09:25:36;;;;;;;9.50;2.37;;;;;;;13.12;79.80;100761.53;4192978;28;20234;-73
2023/10/04 09:28:10;;;;;;;14.63;2.70;;;;;;;13.20;79.20;100762.63;4218700;28;20850;-72
2023/10/04 09:30:37;;;;;;;10.63;2.43;;;;;;;13.22;79.29;100763.31;4207946;28;20333;-73
2023/10/04 09:33:06;;;;;;;9.57;2.30;;;;;;;13.30;78.85;100764.22;4204627;28;20273;-72
2023/10/04 09:35:43;;;;;;;10.30;2.70;;;;;;;13.39;78.87;100767.06;4233363;28;20292;-72
2023/10/04 09:38:17;;;;;;;15.83;2.40;;;;;;;13.44;78.40;100772.88;4197376;28;20249;-72
2023/10/04 09:40:55;;;;;;;9.57;2.03;;;;;;;13.45;78.00;100769.13;4204470;28;20267;-71
2023/10/04 09:43:32;;;;;;;11.90;2.57;;;;;;;13.38;76.60;100774.34;4204204;28;20541;-71
2023/10/04 09:45:59;;;;;;;10.03;2.60;;;;;;;13.34;76.45;100766.63;4201723;28;21764;-71
2023/10/04 09:48:33;;;;;;;12.07;2.90;;;;;;;13.36;76.69;100780.91;4191668;28;20237;-73
2023/10/04 09:51:02;;;;;;;12.20;2.47;;;;;;;13.32;77.59;100773.09;4204661;28;20304;-70
2023/10/04 09:53:29;;;;;;;12.83;3.10;;;;;;;13.25;76.84;100788.34;4198783;28;20229;-70
2023/10/04 09:56:02;;;;;;;7.13;2.27;;;;;;;13.26;77.45;100781.00;4204382;28;20307;-70
2023/10/04 09:58:31;;;;;;;11.77;2.60;;;;;;;13.38;77.60;100789.78;4186731;28;20240;-73
2023/10/04 10:01:03;;;;;;;10.47;2.50;;;;;;;13.39;76.68;100783.38;4218839;28;20531;-68
2023/10/04 10:03:39;;;;;;;10.63;2.30;;;;;;;13.56;76.29;100789.78;4198554;28;20339;-66
2023/10/04 10:06:09;;;;;;;10.40;2.53;;;;;;;13.63;75.80;100799.03;4182333;28;20232;-67
2023/10/04 10:08:42;;;;;;;8.53;2.60;;;;;;;13.61;76.54;100791.03;4206407;28;20778;-66
2023/10/04 10:11:10;;;;;;;5.77;2.13;;;;;;;13.49;76.37;100788.72;4197474;28;20233;-67
2023/10/04 10:13:37;;;;;;;10.20;2.40;;;;;;;13.51;76.73;100782.09;4184729;28;20241;-66
2023/10/04 10:16:06;;;;;;;16.73;2.63;;;;;;;13.49;76.43;100783.28;4199296;28;20284;-66
2023/10/04 10:18:33;;;;;;;12.10;2.80;;;;;;;13.47;77.01;100786.16;4195308;28;20244;-67
2023/10/04 10:20:59;;;;;;;10.00;2.03;;;;;;;13.46;76.26;100789.88;4196866;28;20652;-67
2023/10/04 10:23:26;;;;;;;14.20;3.00;;;;;;;13.41;77.22;100774.03;4200073;28;20245;-66
2023/10/04 10:26:15;;;;;;;10.67;2.03;;;;;;;13.53;77.48;100790.09;4204829;28;20236;-67
2023/10/04 10:28:42;;;;;;;8.47;2.27;;;;;;;13.70;77.06;100778.31;4201713;28;21851;-68
2023/10/04 10:31:18;;;;;;;13.40;2.57;;;;;;;13.83;76.31;100775.19;4196250;28;21853;-65
2023/10/04 10:33:47;;;;;;;9.93;2.20;;;;;;;13.96;75.49;100782.94;4199844;28;21276;-68
2023/10/04 10:36:22;;;;;;;9.30;2.23;;;;;;;14.14;75.68;100774.69;4201253;28;21869;-67
2023/10/04 10:38:51;;;;;;;6.70;2.13;;;;;;;14.12;74.99;100782.16;4206026;28;21724;-67
2023/10/04 10:41:34;;;;;;;8.73;2.47;;;;;;;14.07;75.02;100779.06;4199421;28;20252;-66
2023/10/04 10:44:17;;;;;;;9.67;2.47;;;;;;;14.03;75.03;100772.22;4215346;28;20241;-76
2023/10/04 10:46:55;;;;;;;8.20;2.20;;;;;;;14.12;74.35;100768.53;4187067;28;23254;-72
2023/10/04 10:49:40;;;;;;;8.13;2.60;;;;;;;13.97;75.70;100765.59;4198352;28;22781;-72
2023/10/04 10:52:20;;;;;;;13.13;2.73;;;;;;;13.94;74.92;100782.22;4188250;28;20240;-72
2023/10/04 10:54:48;;;;;;;8.03;2.43;;;;;;;13.79;75.89;100784.66;4196965;28;20233;-73
2023/10/04 10:57:17;;;;;;;7.10;2.30;;;;;;;13.75;76.55;100777.84;4199897;28;20487;-74
2023/10/04 10:59:46;;;;;;;7.23;2.33;;;;;;;13.67;76.71;100785.94;4199581;28;20605;-74
2023/10/04 11:02:12;;;;;;;10.03;2.23;;;;;;;13.70;76.95;100777.47;4208767;28;20358;-71
2023/10/04 11:04:39;;;;;;;15.07;2.67;;;;;;;13.63;77.02;100772.66;4186140;28;20251;-73
2023/10/04 11:07:11;;;;;;;7.77;2.40;;;;;;;13.56;77.70;100782.47;4204248;28;23746;-75
2023/10/04 11:09:43;;;;;;;10.17;2.83;;;;;;;13.51;77.28;100783.97;4193521;28;20237;-73
2023/10/04 11:12:17;;;;;;;6.07;2.23;;;;;;;13.59;77.19;100778.59;4198552;28;20441;-72
2023/10/04 11:14:44;;;;;;;10.40;2.53;;;;;;;13.54;77.55;100787.22;4205230;28;23502;-74
2023/10/04 11:17:11;;;;;;;9.23;2.17;;;;;;;13.72;77.19;100781.75;4190234;28;20233;-76
2023/10/04 11:19:38;;;;;;;10.67;2.33;;;;;;;13.78;77.08;100783.81;4204251;28;20628;-76
2023/10/04 11:22:05;;;;;;;12.73;2.97;;;;;;;13.73;76.80;100777.16;4199488;28;20257;-73
2023/10/04 11:24:37;;;;;;;7.83;2.33;;;;;;;13.71;76.85;100771.88;4190897;28;21272;-74
2023/10/04 11:27:04;;;;;;;12.00;2.30;;;;;;;13.67;76.44;100778.63;4199379;28;20241;-75
2023/10/04 11:29:33;;;;;;;6.53;2.20;;;;;;;13.64;76.20;100765.38;4195613;28;20255;-82
2023/10/04 11:32:00;;;;;;;11.47;2.20;;;;;;;13.71;74.83;100761.00;4231410;28;20296;-75
2023/10/04 11:34:34;;;;;;;7.90;2.07;;;;;;;13.69;74.49;100771.16;4196668;28;20647;-71
2023/10/04 11:37:01;;;;;;;9.53;2.47;;;;;;;13.77;74.84;100773.13;4201958;28;21059;-76